Terminal Aerodrome Forecast
Issued by NWS

Home | Current Version | Previous Version | Text Only | Print | Product List | Glossary On
Versions: 1 2 3 4 5 6 7 8 9 10 11 12 13 14 15 16
000
FTUS45 KTFX 260559 AAA
TAFLWT
TAF AMD
KLWT 260559Z 2606/2706 09010KT P6SM -SHRA BKN025
      TEMPO 2606/2608 1SM -SN BR BKN005
     FM260900 11008KT P6SM SCT025 BKN040
     FM261800 13010KT P6SM -SHRA VCTS SCT025 BKN050CB
     FM270300 12008KT P6SM -SHRA SCT020 BKN050=

USA.gov is the U.S. government's official web portal to all federal, state and local government web resources and services.